createdAt,value
2022-11-22T00:00:16.421Z,28.60
2022-11-22T00:01:16.382Z,27.60
2022-11-22T00:02:16.433Z,27.00
2022-11-22T00:03:16.366Z,20.40
2022-11-22T00:04:16.363Z,24.30
2022-11-22T00:05:17.336Z,23.50
2022-11-22T00:06:16.318Z,26.50
2022-11-22T00:07:16.343Z,21.50
2022-11-22T00:08:16.396Z,22.60
2022-11-22T00:09:16.338Z,22.20
2022-11-22T00:10:16.333Z,20.40
2022-11-22T00:11:16.287Z,22.20
2022-11-22T00:12:16.287Z,22.40
2022-11-22T00:13:16.300Z,24.50
2022-11-22T00:14:16.255Z,25.10
2022-11-22T00:15:16.264Z,24.80
2022-11-22T00:16:16.232Z,23.10
2022-11-22T00:17:16.216Z,23.50
2022-11-22T00:18:16.224Z,29.10
2022-11-22T00:19:16.283Z,22.60
2022-11-22T00:20:17.203Z,24.10
2022-11-22T00:21:16.199Z,20.80
2022-11-22T00:22:16.238Z,24.60
2022-11-22T00:23:16.163Z,23.70
2022-11-22T00:24:16.159Z,26.90
2022-11-22T00:25:16.134Z,28.20
2022-11-22T00:26:16.131Z,29.90
2022-11-22T00:27:16.103Z,26.00
2022-11-22T00:28:16.100Z,23.50
2022-11-22T00:29:16.100Z,21.80
2022-11-22T00:30:16.101Z,25.10
2022-11-22T00:31:16.092Z,34.40
2022-11-22T00:32:16.066Z,29.40
2022-11-22T00:33:16.031Z,28.20
2022-11-22T00:34:16.019Z,28.60
2022-11-22T00:35:16.008Z,25.40
2022-11-22T00:36:16.007Z,26.80
2022-11-22T00:37:16.004Z,20.90
2022-11-22T00:38:15.989Z,26.10
2022-11-22T00:39:15.980Z,30.00
2022-11-22T00:40:15.951Z,37.30
2022-11-22T00:41:16.024Z,38.10
2022-11-22T00:42:15.944Z,33.70
2022-11-22T00:43:15.932Z,34.60
2022-11-22T00:44:15.911Z,34.50
2022-11-22T00:45:15.964Z,32.90
2022-11-22T00:46:15.947Z,27.90
2022-11-22T00:47:15.892Z,29.20
2022-11-22T00:48:15.883Z,29.60
2022-11-22T00:49:15.864Z,25.80
2022-11-22T00:50:15.857Z,19.30
2022-11-22T00:51:15.821Z,29.70
2022-11-22T00:52:15.807Z,19.90
2022-11-22T00:53:15.859Z,25.00
2022-11-22T00:54:15.793Z,28.90
2022-11-22T00:55:15.813Z,27.30
2022-11-22T00:56:15.794Z,21.30
2022-11-22T00:57:15.764Z,25.90
2022-11-22T00:58:15.761Z,24.10
2022-11-22T00:59:15.820Z,21.40
2022-11-22T01:00:15.739Z,19.70
2022-11-22T01:01:15.796Z,26.10
2022-11-22T01:02:15.709Z,25.70
2022-11-22T01:03:15.716Z,22.50
2022-11-22T01:04:15.757Z,21.90
2022-11-22T01:05:15.705Z,22.20
2022-11-22T01:06:15.661Z,39.20
2022-11-22T01:07:15.748Z,31.20
2022-11-22T01:08:15.657Z,19.30
2022-11-22T01:09:15.635Z,29.80
2022-11-22T01:10:15.689Z,31.90
2022-11-22T01:11:15.612Z,34.70
2022-11-22T01:12:15.593Z,25.70
2022-11-22T01:13:16.601Z,22.10
2022-11-22T01:14:15.574Z,26.20
2022-11-22T01:15:15.592Z,24.20
2022-11-22T01:16:15.553Z,25.10
2022-11-22T01:17:15.593Z,24.30
2022-11-22T01:18:15.573Z,29.70
2022-11-22T01:19:15.516Z,27.40
2022-11-22T01:20:15.513Z,25.70
2022-11-22T01:21:15.569Z,25.80
2022-11-22T01:22:15.505Z,22.00
2022-11-22T01:23:15.530Z,36.50
2022-11-22T01:24:15.493Z,31.30
2022-11-22T01:25:16.233Z,32.60
2022-11-22T01:26:15.472Z,29.70
2022-11-22T01:27:15.449Z,29.60
2022-11-22T01:28:15.454Z,30.50
2022-11-22T01:29:15.435Z,34.70
2022-11-22T01:30:15.442Z,31.20
2022-11-22T01:31:15.438Z,30.30
2022-11-22T01:32:15.414Z,32.60
2022-11-22T01:33:15.382Z,33.10
2022-11-22T01:34:15.401Z,29.90
2022-11-22T01:35:15.406Z,35.00
2022-11-22T01:36:15.390Z,34.30
2022-11-22T01:37:15.378Z,32.40
2022-11-22T01:38:15.355Z,33.90
2022-11-22T01:39:15.378Z,30.60
2022-11-22T01:40:15.329Z,34.20
2022-11-22T01:41:16.243Z,39.40
2022-11-22T01:42:15.322Z,41.40
2022-11-22T01:43:15.298Z,44.60
2022-11-22T01:44:15.646Z,36.70
2022-11-22T01:45:15.288Z,35.60
2022-11-22T01:46:15.231Z,38.40
2022-11-22T01:47:15.290Z,41.40
2022-11-22T01:48:15.279Z,39.90
2022-11-22T01:49:15.235Z,36.60
2022-11-22T01:50:16.283Z,38.50
2022-11-22T01:51:15.204Z,33.10
2022-11-22T01:52:15.203Z,37.10
2022-11-22T01:53:15.172Z,28.90
2022-11-22T01:54:15.191Z,36.70
2022-11-22T01:55:15.174Z,32.90
2022-11-22T01:56:15.151Z,29.20
2022-11-22T01:57:15.128Z,37.10
2022-11-22T01:58:15.163Z,29.90
2022-11-22T01:59:15.152Z,38.40
2022-11-22T02:00:15.156Z,30.90
2022-11-22T02:01:15.141Z,31.50
2022-11-22T02:02:15.095Z,30.50
2022-11-22T02:03:15.103Z,45.20
2022-11-22T02:04:15.066Z,48.50
2022-11-22T02:05:15.121Z,48.50
2022-11-22T02:06:15.036Z,37.90
2022-11-22T02:07:15.090Z,33.40
2022-11-22T02:08:15.039Z,53.50
2022-11-22T02:09:15.051Z,28.40
2022-11-22T02:10:14.992Z,41.00
2022-11-22T02:11:15.029Z,38.70
2022-11-22T02:12:15.000Z,43.50
2022-11-22T02:13:15.016Z,54.20
2022-11-22T02:14:14.984Z,58.80
2022-11-22T02:15:14.921Z,52.40
2022-11-22T02:16:14.942Z,29.10
2022-11-22T02:17:14.967Z,44.10
2022-11-22T02:18:14.895Z,34.50
2022-11-22T02:19:14.895Z,38.50
2022-11-22T02:20:14.916Z,48.60
2022-11-22T02:21:14.904Z,54.40
2022-11-22T02:22:14.856Z,46.50
2022-11-22T02:23:14.852Z,30.30
2022-11-22T02:24:14.985Z,36.60
2022-11-22T02:25:14.841Z,32.10
2022-11-22T02:26:14.853Z,32.00
2022-11-22T02:27:14.844Z,28.50
2022-11-22T02:28:14.834Z,31.60
2022-11-22T02:29:14.781Z,38.20
2022-11-22T02:30:14.817Z,27.50
2022-11-22T02:31:14.768Z,23.60
2022-11-22T02:32:14.747Z,30.10
2022-11-22T02:33:14.761Z,30.80
2022-11-22T02:34:14.870Z,24.90
2022-11-22T02:35:14.751Z,29.30
2022-11-22T02:36:14.755Z,23.20
2022-11-22T02:37:14.681Z,23.00
2022-11-22T02:38:14.713Z,29.10
2022-11-22T02:39:14.702Z,24.30
2022-11-22T02:40:14.693Z,25.70
2022-11-22T02:41:14.674Z,26.70
2022-11-22T02:42:15.202Z,28.90
2022-11-22T02:43:14.618Z,23.00
2022-11-22T02:44:14.650Z,24.70
2022-11-22T02:45:14.657Z,19.80
2022-11-22T02:46:14.639Z,25.50
2022-11-22T02:47:14.606Z,22.20
2022-11-22T02:48:14.579Z,35.90
2022-11-22T02:49:14.660Z,25.40
2022-11-22T02:50:14.590Z,30.40
2022-11-22T02:51:14.583Z,33.30
2022-11-22T02:52:14.575Z,23.50
2022-11-22T02:53:14.550Z,30.50
2022-11-22T02:54:14.542Z,31.80
2022-11-22T02:55:14.518Z,25.40
2022-11-22T02:56:14.541Z,28.00
2022-11-22T02:57:14.518Z,25.40
2022-11-22T02:58:14.467Z,18.30
2022-11-22T02:59:14.472Z,20.70
2022-11-22T03:00:15.112Z,21.80
2022-11-22T03:01:14.509Z,23.80
2022-11-22T03:02:14.467Z,28.40
2022-11-22T03:03:14.438Z,25.20
2022-11-22T03:04:14.542Z,37.50
2022-11-22T03:05:14.438Z,25.80
2022-11-22T03:06:14.486Z,17.20
2022-11-22T03:07:14.419Z,21.60
2022-11-22T03:08:14.401Z,26.40
2022-11-22T03:09:14.379Z,22.90
2022-11-22T03:10:14.360Z,17.10
2022-11-22T03:11:14.333Z,18.80
2022-11-22T03:12:14.352Z,28.40
2022-11-22T03:13:14.373Z,17.60
2022-11-22T03:14:14.324Z,17.40
2022-11-22T03:15:14.308Z,20.40
2022-11-22T03:16:14.315Z,15.10
2022-11-22T03:17:14.279Z,16.90
2022-11-22T03:18:14.471Z,15.00
2022-11-22T03:19:14.251Z,16.40
2022-11-22T03:20:14.283Z,16.10
2022-11-22T03:21:14.241Z,17.30
2022-11-22T03:22:14.252Z,17.30
2022-11-22T03:23:14.199Z,18.90
2022-11-22T03:24:15.192Z,16.80
2022-11-22T03:25:14.188Z,16.30
2022-11-22T03:26:14.203Z,17.00
2022-11-22T03:27:14.207Z,16.30
2022-11-22T03:28:14.176Z,21.00
2022-11-22T03:29:14.183Z,19.40
2022-11-22T03:30:14.148Z,20.00
2022-11-22T03:31:14.204Z,20.70
2022-11-22T03:32:14.131Z,13.80
2022-11-22T03:33:14.119Z,14.90
2022-11-22T03:34:14.104Z,13.10
2022-11-22T03:35:15.101Z,23.60
2022-11-22T03:36:14.088Z,13.40
2022-11-22T03:37:14.105Z,17.30
2022-11-22T03:38:14.065Z,18.60
2022-11-22T03:39:14.059Z,22.90
2022-11-22T03:40:14.042Z,26.90
2022-11-22T03:41:14.084Z,17.50
2022-11-22T03:42:19.698Z,25.40
2022-11-22T03:43:16.053Z,17.70
2022-11-22T03:44:14.018Z,24.40
2022-11-22T03:45:14.015Z,19.10
2022-11-22T03:46:14.000Z,19.10
2022-11-22T03:47:13.981Z,21.90
2022-11-22T03:48:14.012Z,21.90
2022-11-22T03:49:13.993Z,15.60
2022-11-22T03:50:13.950Z,20.20
2022-11-22T03:51:13.934Z,17.80
2022-11-22T03:52:13.933Z,18.00
2022-11-22T03:53:13.949Z,14.80
2022-11-22T03:54:13.889Z,21.80
2022-11-22T03:55:13.891Z,20.10
2022-11-22T03:56:13.888Z,20.90
2022-11-22T03:57:13.885Z,15.00
2022-11-22T03:58:13.854Z,18.30
2022-11-22T03:59:13.856Z,31.90
2022-11-22T04:00:13.854Z,17.40
2022-11-22T04:01:16.817Z,18.10
2022-11-22T04:02:13.878Z,23.40
2022-11-22T04:03:13.822Z,18.10
2022-11-22T04:04:13.805Z,31.40
2022-11-22T04:05:13.802Z,19.60
2022-11-22T04:06:13.833Z,17.70
2022-11-22T04:07:13.824Z,18.70
2022-11-22T04:08:13.730Z,27.10
2022-11-22T04:09:13.770Z,20.50
2022-11-22T04:10:16.480Z,25.30
2022-11-22T04:11:14.704Z,18.40
2022-11-22T04:12:13.708Z,23.70
2022-11-22T04:13:13.724Z,27.00
2022-11-22T04:14:13.690Z,21.10
2022-11-22T04:15:13.741Z,19.40
2022-11-22T04:16:13.698Z,24.60
2022-11-22T04:17:13.713Z,22.10
2022-11-22T04:18:13.619Z,31.70
2022-11-22T04:19:13.643Z,22.40
2022-11-22T04:20:13.636Z,25.60
2022-11-22T04:21:13.618Z,31.90
2022-11-22T04:22:13.620Z,23.10
2022-11-22T04:23:13.632Z,28.70
2022-11-22T04:24:13.593Z,23.30
2022-11-22T04:25:13.638Z,28.50
2022-11-22T04:26:13.544Z,23.20
2022-11-22T04:27:13.615Z,19.10
2022-11-22T04:28:13.559Z,23.00
2022-11-22T04:29:13.519Z,25.40
2022-11-22T04:30:18.936Z,22.20
2022-11-22T04:31:15.577Z,22.10
2022-11-22T04:32:13.508Z,28.20
2022-11-22T04:33:13.487Z,33.60
2022-11-22T04:34:13.474Z,39.60
2022-11-22T04:35:13.461Z,29.60
2022-11-22T04:36:13.679Z,25.50
2022-11-22T04:37:14.455Z,20.60
2022-11-22T04:38:13.448Z,23.60
2022-11-22T04:39:13.449Z,37.10
2022-11-22T04:40:13.417Z,34.50
2022-11-22T04:41:13.381Z,26.20
2022-11-22T04:42:13.391Z,35.80
2022-11-22T04:43:13.375Z,28.10
2022-11-22T04:44:13.364Z,25.10
2022-11-22T04:45:13.403Z,29.20
2022-11-22T04:46:13.356Z,24.30
2022-11-22T04:47:13.340Z,20.90
2022-11-22T04:48:13.344Z,43.50
2022-11-22T04:49:13.316Z,25.70
2022-11-22T04:50:13.299Z,36.80
2022-11-22T04:51:13.316Z,33.00
2022-11-22T04:52:14.195Z,29.80
2022-11-22T04:53:13.252Z,29.30
2022-11-22T04:54:13.281Z,36.70
2022-11-22T04:55:13.281Z,33.70
2022-11-22T04:56:13.244Z,38.40
2022-11-22T04:57:13.209Z,25.10
2022-11-22T04:58:13.254Z,29.90
2022-11-22T04:59:13.223Z,31.50
2022-11-22T05:00:13.194Z,39.40
2022-11-22T05:01:13.277Z,24.80
2022-11-22T05:02:13.176Z,26.30
2022-11-22T05:03:13.227Z,36.90
2022-11-22T05:04:13.159Z,28.10
2022-11-22T05:05:13.122Z,24.00
2022-11-22T05:06:13.144Z,24.50
2022-11-22T05:07:13.153Z,26.30
2022-11-22T05:08:13.135Z,25.70
2022-11-22T05:09:13.116Z,28.50
2022-11-22T05:10:13.185Z,29.00
2022-11-22T05:11:13.665Z,31.10
2022-11-22T05:12:13.082Z,32.10
2022-11-22T05:13:13.101Z,31.90
2022-11-22T05:14:13.071Z,27.30
2022-11-22T05:15:13.090Z,34.50
2022-11-22T05:16:13.129Z,31.00
2022-11-22T05:17:13.915Z,23.50
2022-11-22T05:18:14.030Z,33.40
2022-11-22T05:19:12.998Z,39.70
2022-11-22T05:20:12.985Z,29.10
2022-11-22T05:21:13.000Z,41.90
2022-11-22T05:22:12.958Z,28.70
2022-11-22T05:23:12.969Z,40.70
2022-11-22T05:24:12.935Z,38.00
2022-11-22T05:25:12.918Z,50.80
2022-11-22T05:26:13.638Z,34.30
2022-11-22T05:27:12.919Z,41.40
2022-11-22T05:28:12.914Z,41.90
2022-11-22T05:29:12.876Z,45.80
2022-11-22T05:30:12.861Z,31.40
2022-11-22T05:31:12.867Z,32.30
2022-11-22T05:32:12.874Z,32.40
2022-11-22T05:33:12.839Z,33.80
2022-11-22T05:34:12.858Z,29.50
2022-11-22T05:35:12.819Z,29.40
2022-11-22T05:36:12.815Z,31.50
2022-11-22T05:37:13.819Z,30.00
2022-11-22T05:38:12.810Z,35.90
2022-11-22T05:39:12.931Z,26.20
2022-11-22T05:40:12.801Z,28.40
2022-11-22T05:41:12.766Z,29.00
2022-11-22T05:42:12.744Z,25.60
2022-11-22T05:43:12.718Z,51.20
2022-11-22T05:44:12.714Z,46.20
2022-11-22T05:45:12.786Z,43.40
2022-11-22T05:46:12.686Z,51.20
2022-11-22T05:47:12.677Z,55.30
2022-11-22T05:48:12.660Z,33.90
2022-11-22T05:49:12.705Z,43.20
2022-11-22T05:50:12.670Z,38.70
2022-11-22T05:51:12.656Z,31.10
2022-11-22T05:52:12.621Z,39.60
2022-11-22T05:53:12.630Z,33.60
2022-11-22T05:54:12.628Z,31.30
2022-11-22T05:55:12.610Z,34.20
2022-11-22T05:56:12.610Z,31.20
2022-11-22T05:57:12.577Z,25.40
2022-11-22T05:58:12.541Z,25.50
2022-11-22T05:59:13.546Z,25.50
2022-11-22T06:00:12.547Z,33.90
2022-11-22T06:01:12.537Z,35.60
2022-11-22T06:02:12.604Z,41.60
2022-11-22T06:03:12.705Z,32.70
2022-11-22T06:04:12.507Z,27.40
2022-11-22T06:05:12.497Z,33.30
2022-11-22T06:06:12.495Z,30.40
2022-11-22T06:07:12.494Z,29.50
2022-11-22T06:08:12.534Z,26.40
2022-11-22T06:09:12.514Z,32.80
2022-11-22T06:10:12.491Z,27.40
2022-11-22T06:11:12.524Z,29.20
2022-11-22T06:12:12.406Z,23.30
2022-11-22T06:13:12.436Z,28.50
2022-11-22T06:14:12.686Z,25.50
2022-11-22T06:15:12.392Z,23.10
2022-11-22T06:16:12.415Z,29.10
2022-11-22T06:17:12.428Z,28.90
2022-11-22T06:18:12.366Z,34.20
2022-11-22T06:19:12.364Z,22.20
2022-11-22T06:20:12.387Z,22.90
2022-11-22T06:21:12.468Z,27.20
2022-11-22T06:22:12.371Z,25.20
2022-11-22T06:23:12.320Z,18.80
2022-11-22T06:24:12.288Z,27.00
2022-11-22T06:25:12.299Z,25.60
2022-11-22T06:26:12.298Z,17.50
2022-11-22T06:27:12.308Z,20.90
2022-11-22T06:28:12.342Z,22.80
2022-11-22T06:29:12.307Z,22.00
2022-11-22T06:30:12.243Z,24.00
2022-11-22T06:31:12.219Z,26.20
2022-11-22T06:32:12.209Z,27.60
2022-11-22T06:33:12.225Z,21.10
2022-11-22T06:34:12.263Z,26.20
2022-11-22T06:35:12.305Z,18.00
2022-11-22T06:36:12.263Z,21.40
2022-11-22T06:37:12.231Z,26.00
2022-11-22T06:38:12.140Z,20.30
2022-11-22T06:39:12.141Z,23.70
2022-11-22T06:40:12.132Z,21.10
2022-11-22T06:41:12.130Z,22.40
2022-11-22T06:42:12.113Z,28.10
2022-11-22T06:43:12.125Z,21.90
2022-11-22T06:44:12.076Z,20.60
2022-11-22T06:45:12.096Z,23.80
2022-11-22T06:46:12.103Z,25.90
2022-11-22T06:47:12.085Z,18.50
2022-11-22T06:48:12.054Z,22.60
2022-11-22T06:49:12.039Z,16.60
2022-11-22T06:50:15.131Z,19.70
2022-11-22T06:51:13.004Z,18.40
2022-11-22T06:52:12.019Z,19.30
2022-11-22T06:53:32.362Z,13.90
2022-11-22T06:54:14.092Z,15.80
2022-11-22T06:55:34.672Z,14.10
2022-11-22T06:56:13.955Z,21.60
2022-11-22T06:57:11.964Z,16.70
2022-11-22T06:58:11.987Z,18.50
2022-11-22T06:59:11.953Z,18.90
2022-11-22T07:00:11.960Z,24.40
2022-11-22T07:01:11.947Z,21.90
2022-11-22T07:02:11.936Z,16.70
2022-11-22T07:03:11.937Z,17.80
2022-11-22T07:04:11.864Z,19.00
2022-11-22T07:05:25.706Z,16.00
2022-11-22T07:06:13.836Z,20.60
2022-11-22T07:07:11.877Z,13.80
2022-11-22T07:08:14.001Z,20.50
2022-11-22T07:09:12.868Z,16.40
2022-11-22T07:10:11.804Z,19.30
2022-11-22T07:11:11.800Z,20.40
2022-11-22T07:12:11.797Z,16.10
2022-11-22T07:13:11.809Z,16.10
2022-11-22T07:14:11.778Z,18.10
2022-11-22T07:15:11.781Z,21.80
2022-11-22T07:16:11.714Z,21.40
2022-11-22T07:17:11.763Z,18.70
2022-11-22T07:18:11.781Z,17.60
2022-11-22T07:19:11.699Z,17.10
2022-11-22T07:20:11.761Z,17.10
2022-11-22T07:21:13.563Z,19.60
2022-11-22T07:22:12.720Z,13.30
2022-11-22T07:23:11.665Z,20.60
2022-11-22T07:24:11.666Z,19.70
2022-11-22T07:25:11.664Z,16.20
2022-11-22T07:26:11.748Z,19.40
2022-11-22T07:27:11.726Z,19.10
2022-11-22T07:28:11.649Z,17.80
2022-11-22T07:29:11.659Z,17.80
2022-11-22T07:30:11.599Z,17.40
2022-11-22T07:31:11.591Z,20.30
2022-11-22T07:32:11.566Z,19.80
2022-11-22T07:33:11.562Z,19.60
2022-11-22T07:34:11.569Z,23.40
2022-11-22T07:35:11.603Z,19.90
2022-11-22T07:36:11.527Z,24.80
2022-11-22T07:37:11.506Z,22.10
2022-11-22T07:38:11.515Z,22.10
2022-11-22T07:39:11.515Z,22.40
2022-11-22T07:40:11.479Z,24.10
2022-11-22T07:41:11.485Z,18.30
2022-11-22T07:42:11.532Z,27.10
2022-11-22T07:43:11.447Z,25.70
2022-11-22T07:44:11.546Z,21.70
2022-11-22T07:45:11.459Z,23.70
2022-11-22T07:46:11.457Z,22.60
2022-11-22T07:47:11.447Z,23.00
2022-11-22T07:48:11.402Z,26.20
2022-11-22T07:49:11.393Z,22.80
2022-11-22T07:50:11.409Z,24.60
2022-11-22T07:51:11.383Z,20.70
2022-11-22T07:52:11.386Z,19.60
2022-11-22T07:53:11.367Z,24.40
2022-11-22T07:54:11.334Z,23.40
2022-11-22T07:55:14.244Z,22.70
2022-11-22T07:56:12.459Z,22.70
2022-11-22T07:57:11.323Z,23.80
2022-11-22T07:58:11.286Z,19.70
2022-11-22T07:59:11.268Z,22.90
2022-11-22T08:00:11.300Z,17.90
2022-11-22T08:01:11.362Z,22.80
2022-11-22T08:02:11.372Z,23.60
2022-11-22T08:03:15.618Z,24.70
2022-11-22T08:04:13.240Z,18.10
2022-11-22T08:05:11.213Z,22.50
2022-11-22T08:06:11.220Z,22.80
2022-11-22T08:07:11.281Z,27.50
2022-11-22T08:08:11.277Z,24.60
2022-11-22T08:09:11.784Z,27.90
2022-11-22T08:10:11.176Z,33.10
2022-11-22T08:11:11.266Z,23.40
2022-11-22T08:12:11.264Z,28.40
2022-11-22T08:13:11.135Z,27.50
2022-11-22T08:14:11.148Z,26.50
2022-11-22T08:15:11.113Z,29.70
2022-11-22T08:16:11.191Z,33.40
2022-11-22T08:17:11.092Z,28.50
2022-11-22T08:18:11.097Z,27.70
2022-11-22T08:19:11.048Z,34.20
2022-11-22T08:20:11.353Z,29.30
2022-11-22T08:21:11.169Z,32.30
2022-11-22T08:22:11.089Z,32.70
2022-11-22T08:23:11.078Z,35.00
2022-11-22T08:24:11.314Z,30.10
2022-11-22T08:25:11.056Z,32.90
2022-11-22T08:26:11.004Z,32.20
2022-11-22T08:27:11.125Z,38.10
2022-11-22T08:28:11.000Z,31.10
2022-11-22T08:29:14.074Z,39.00
2022-11-22T08:30:12.020Z,39.20
2022-11-22T08:31:10.949Z,33.20
2022-11-22T08:32:10.918Z,27.60
2022-11-22T08:33:10.932Z,35.60
2022-11-22T08:34:10.923Z,35.60
2022-11-22T08:35:11.014Z,31.30
2022-11-22T08:36:10.923Z,23.90
2022-11-22T08:37:10.876Z,30.20
2022-11-22T08:38:10.857Z,26.00
2022-11-22T08:39:10.853Z,32.30
2022-11-22T08:40:10.920Z,28.50
2022-11-22T08:41:12.905Z,25.50
2022-11-22T08:42:10.845Z,29.80
2022-11-22T08:43:10.793Z,30.70
2022-11-22T08:44:10.833Z,32.60
2022-11-22T08:45:10.833Z,33.40
2022-11-22T08:46:10.820Z,36.10
2022-11-22T08:47:10.778Z,36.60
2022-11-22T08:48:10.762Z,32.40
2022-11-22T08:49:10.766Z,31.00
2022-11-22T08:50:10.705Z,32.20
2022-11-22T08:51:10.762Z,24.40
2022-11-22T08:52:10.716Z,22.80
2022-11-22T08:53:10.673Z,25.40
2022-11-22T08:54:11.699Z,22.30
2022-11-22T08:55:10.758Z,31.30
2022-11-22T08:56:10.771Z,30.50
2022-11-22T08:57:10.733Z,31.40
2022-11-22T08:58:10.702Z,31.60
2022-11-22T08:59:10.700Z,26.20
2022-11-22T09:00:10.618Z,24.40
2022-11-22T09:01:10.713Z,29.10
2022-11-22T09:02:10.634Z,28.40
2022-11-22T09:03:10.617Z,25.60
2022-11-22T09:04:10.555Z,31.00
2022-11-22T09:05:10.559Z,26.10
2022-11-22T09:10:12.633Z,22.60
2022-11-22T09:11:10.499Z,24.90
2022-11-22T09:12:10.562Z,23.70
2022-11-22T09:13:10.510Z,21.10
2022-11-22T09:14:10.482Z,19.70
2022-11-22T09:15:10.451Z,27.60
2022-11-22T09:16:10.426Z,22.70
2022-11-22T09:17:16.144Z,23.30
2022-11-22T09:18:12.455Z,27.20
2022-11-22T09:19:10.386Z,22.50
2022-11-22T09:20:10.378Z,28.60
2022-11-22T09:21:10.355Z,24.10
2022-11-22T09:22:10.352Z,26.40
2022-11-22T09:23:10.396Z,24.70
2022-11-22T09:24:10.351Z,23.80
2022-11-22T09:25:10.374Z,26.10
2022-11-22T09:26:10.311Z,25.20
2022-11-22T09:27:10.279Z,25.70
2022-11-22T09:28:10.350Z,28.30
2022-11-22T09:29:10.301Z,27.70
2022-11-22T09:30:10.243Z,28.10
2022-11-22T09:31:10.291Z,27.60
2022-11-22T09:32:10.227Z,25.00
2022-11-22T09:33:10.234Z,27.80
2022-11-22T09:34:10.235Z,25.00
2022-11-22T09:35:10.227Z,26.50
2022-11-22T09:36:10.247Z,23.70
2022-11-22T09:37:10.186Z,25.10
2022-11-22T09:38:10.161Z,23.10
2022-11-22T09:39:10.159Z,29.60
2022-11-22T09:40:10.198Z,23.30
2022-11-22T09:41:10.112Z,26.80
2022-11-22T09:42:10.176Z,27.80
2022-11-22T09:43:10.148Z,24.00
2022-11-22T09:44:10.190Z,21.30
2022-11-22T09:45:10.132Z,26.50
2022-11-22T09:46:10.087Z,25.60
2022-11-22T09:47:10.064Z,27.10
2022-11-22T09:48:10.284Z,23.80
2022-11-22T09:49:10.073Z,20.80
2022-11-22T09:50:10.046Z,20.00
2022-11-22T09:51:10.031Z,22.20
2022-11-22T09:52:10.030Z,23.80
2022-11-22T09:53:10.010Z,23.70
2022-11-22T09:54:09.997Z,20.70
2022-11-22T09:55:09.971Z,22.70
2022-11-22T09:56:09.989Z,24.70
2022-11-22T09:57:09.967Z,20.90
2022-11-22T09:58:09.967Z,23.50
2022-11-22T09:59:09.959Z,21.50
2022-11-22T10:00:10.013Z,21.20
2022-11-22T10:01:09.981Z,19.60
2022-11-22T10:02:18.300Z,21.70
2022-11-22T10:03:11.924Z,21.60
2022-11-22T10:04:10.002Z,19.00
2022-11-22T10:05:09.869Z,23.60
2022-11-22T10:06:09.860Z,20.20
2022-11-22T10:07:09.939Z,18.10
2022-11-22T10:08:09.842Z,25.70
2022-11-22T10:09:09.921Z,21.30
2022-11-22T10:10:09.856Z,19.20
2022-11-22T10:11:09.817Z,20.10
2022-11-22T10:12:09.779Z,20.40
2022-11-22T10:13:09.792Z,19.20
2022-11-22T10:14:09.810Z,18.70
2022-11-22T10:15:09.956Z,17.90
2022-11-22T10:16:09.805Z,18.40
2022-11-22T10:17:09.797Z,22.00
2022-11-22T10:18:09.804Z,18.20
2022-11-22T10:19:09.749Z,17.10
2022-11-22T10:20:09.694Z,18.60
2022-11-22T10:21:09.698Z,16.30
2022-11-22T10:22:09.737Z,21.00
2022-11-22T10:23:09.837Z,21.10
2022-11-22T10:24:09.673Z,19.40
2022-11-22T10:25:09.662Z,19.80
2022-11-22T10:26:09.881Z,18.70
2022-11-22T10:27:09.642Z,17.90
2022-11-22T10:28:09.674Z,17.20
2022-11-22T10:29:09.586Z,20.70
2022-11-22T10:30:09.594Z,19.60
2022-11-22T10:31:09.570Z,19.90
2022-11-22T10:32:09.709Z,21.70
2022-11-22T10:33:09.562Z,17.70
2022-11-22T10:34:09.621Z,18.90
2022-11-22T10:35:09.626Z,17.90
2022-11-22T10:36:10.522Z,17.10
2022-11-22T10:37:09.523Z,17.70
2022-11-22T10:38:09.563Z,24.80
2022-11-22T10:39:09.547Z,18.70
2022-11-22T10:40:09.510Z,21.90
2022-11-22T10:41:09.499Z,16.70
2022-11-22T10:42:09.528Z,16.10
2022-11-22T10:43:09.479Z,21.80
2022-11-22T10:44:10.190Z,19.20
2022-11-22T10:45:09.468Z,19.80
2022-11-22T10:46:10.211Z,19.00
2022-11-22T10:47:09.472Z,21.10
2022-11-22T10:48:09.616Z,18.70
2022-11-22T10:49:09.408Z,16.30
2022-11-22T10:50:10.122Z,19.00
2022-11-22T10:51:10.143Z,22.30
2022-11-22T10:52:10.151Z,20.10
2022-11-22T10:53:09.478Z,23.90
2022-11-22T10:54:10.139Z,19.60
2022-11-22T10:55:10.101Z,23.80
2022-11-22T10:56:09.465Z,23.40
2022-11-22T10:57:09.331Z,20.20
2022-11-22T10:58:09.424Z,15.60
2022-11-22T10:59:09.393Z,27.50
2022-11-22T11:00:09.556Z,18.60
2022-11-22T11:01:09.290Z,29.00
2022-11-22T11:02:09.369Z,20.10
2022-11-22T11:03:09.251Z,20.90
2022-11-22T11:04:09.329Z,14.90
2022-11-22T11:05:09.277Z,18.90
2022-11-22T11:06:43.151Z,18.40
2022-11-22T11:07:12.735Z,19.80
2022-11-22T11:08:39.242Z,18.30
2022-11-22T11:10:13.013Z,17.90
2022-11-22T11:11:11.213Z,17.60
2022-11-22T11:12:09.167Z,16.40
2022-11-22T11:13:09.169Z,22.40
2022-11-22T11:14:09.185Z,15.50
2022-11-22T11:15:09.184Z,20.70
2022-11-22T11:16:09.189Z,23.20
2022-11-22T11:17:09.124Z,19.80
2022-11-22T11:18:09.084Z,20.50
2022-11-22T11:19:09.126Z,21.40
2022-11-22T11:20:09.154Z,19.90
2022-11-22T11:21:09.176Z,20.10
2022-11-22T11:22:09.150Z,18.40
2022-11-22T11:23:16.603Z,18.70
2022-11-22T11:24:11.128Z,20.50
2022-11-22T11:25:09.074Z,18.60
2022-11-22T11:26:09.045Z,18.50
2022-11-22T11:27:09.146Z,22.30
2022-11-22T11:28:08.997Z,19.80
2022-11-22T11:29:08.989Z,25.50
2022-11-22T11:30:08.951Z,19.00
2022-11-22T11:31:08.949Z,19.00
2022-11-22T11:32:08.906Z,17.40
2022-11-22T11:33:08.905Z,17.90
2022-11-22T11:34:08.913Z,22.80
2022-11-22T11:35:08.905Z,20.10
2022-11-22T11:36:08.949Z,17.90
2022-11-22T11:37:08.869Z,21.60
2022-11-22T11:38:08.869Z,21.10
2022-11-22T11:39:08.877Z,19.60
2022-11-22T11:40:08.802Z,17.80
2022-11-22T11:41:08.878Z,21.70
2022-11-22T11:42:08.825Z,20.90
2022-11-22T11:43:08.792Z,12.70
2022-11-22T11:44:08.823Z,18.30
2022-11-22T11:45:08.810Z,15.50
2022-11-22T11:46:08.774Z,12.70
2022-11-22T11:47:08.750Z,17.40
2022-11-22T11:48:08.819Z,16.70
2022-11-22T11:49:08.746Z,18.60
2022-11-22T11:50:08.715Z,16.90
2022-11-22T11:51:08.746Z,18.30
2022-11-22T11:52:08.830Z,14.30
2022-11-22T11:53:08.783Z,16.90
2022-11-22T11:54:08.683Z,18.30
2022-11-22T11:55:08.681Z,16.60
2022-11-22T11:56:08.658Z,22.30
2022-11-22T11:57:08.675Z,13.50
2022-11-22T11:58:11.205Z,19.90
2022-11-22T11:59:08.660Z,17.30
2022-11-22T12:00:08.610Z,15.90
2022-11-22T12:01:08.686Z,16.30
2022-11-22T12:02:08.690Z,12.60
2022-11-22T12:03:08.554Z,18.70
2022-11-22T12:04:08.691Z,22.40
2022-11-22T12:05:08.586Z,13.80
2022-11-22T12:06:08.564Z,17.00
2022-11-22T12:07:08.609Z,14.70
2022-11-22T12:08:08.623Z,14.60
2022-11-22T12:09:08.518Z,16.80
2022-11-22T12:10:09.012Z,20.40
2022-11-22T12:11:08.610Z,17.80
2022-11-22T12:12:08.562Z,16.60
2022-11-22T12:13:08.498Z,13.80
2022-11-22T12:14:20.108Z,10.50
2022-11-22T12:15:11.831Z,23.30
2022-11-22T12:16:09.473Z,17.40
2022-11-22T12:17:08.495Z,14.80
2022-11-22T12:18:08.445Z,15.90
2022-11-22T12:19:08.370Z,17.50
2022-11-22T12:20:08.400Z,14.90
2022-11-22T12:21:08.363Z,14.70
2022-11-22T12:22:08.418Z,18.00
2022-11-22T12:23:08.370Z,13.90
2022-11-22T12:24:40.295Z,15.30
2022-11-22T12:25:32.131Z,17.90
2022-11-22T12:26:10.347Z,14.00
2022-11-22T12:27:08.323Z,24.00
2022-11-22T12:28:08.312Z,13.90
2022-11-22T12:29:08.319Z,15.20
2022-11-22T12:30:08.274Z,16.10
2022-11-22T12:31:14.819Z,15.00
2022-11-22T12:32:10.340Z,14.10
2022-11-22T12:33:08.317Z,14.00
2022-11-22T12:34:08.288Z,11.70
2022-11-22T12:35:08.244Z,16.20
2022-11-22T12:36:08.216Z,14.30
2022-11-22T12:37:08.266Z,22.90
2022-11-22T12:38:08.195Z,12.70
2022-11-22T12:39:08.992Z,11.80
2022-11-22T12:40:08.254Z,16.10
2022-11-22T12:41:08.992Z,11.70
2022-11-22T12:42:08.129Z,12.90
2022-11-22T12:43:08.152Z,11.90
2022-11-22T12:44:08.154Z,16.60
2022-11-22T12:45:08.121Z,16.30
2022-11-22T12:46:08.104Z,14.00
2022-11-22T12:47:08.512Z,22.10
2022-11-22T12:48:08.057Z,10.80
2022-11-22T12:49:08.300Z,13.30
2022-11-22T12:50:08.104Z,12.50
2022-11-22T12:51:08.577Z,15.60
2022-11-22T12:52:08.066Z,14.50
2022-11-22T12:53:08.040Z,12.90
2022-11-22T12:54:08.024Z,17.60
2022-11-22T12:55:08.027Z,17.50
2022-11-22T12:56:08.085Z,17.00
2022-11-22T12:57:08.006Z,17.40